Long Beach, CA

9:17 PM PDT on April 25, 2017 (GMT -0700)
| | Change Station
Active Advisory: Beach Hazard Statement Active Notice: Public Information Statement

Elev -9999 ft 0.00 °N, 0.00 °E | Updated 3 minutes ago

Mostly Cloudy
Mostly Cloudy
°F
Feels Like °F
N
Wind Variable Wind from North
Gusts mph

Today
High -- | Low -- °F
--% Chance of Precip.
Yesterday
High -- | Low -- °F
Precip. -- in
Pressure 29.87 in
Visibility 10.0 miles
Clouds Clear
Dew Point Not available.
Humidity Not available.
Rainfall --
Snow Depth Not available.
6:09 AM 7:31 PM
Waning Crescent, 0% visible
METAR KLGB 260353Z 31012KT 10SM CLR 22/01 A2987 RMK AO2 SLP113 T02170011
Pressure 29.87 in
Visibility 10.0 miles
Clouds Clear
Dew Point Not available.
Humidity Not available.
Rainfall --
Snow Depth Not available.
6:09 AM 7:31 PM
Waning Crescent, 0% visible
METAR KLGB 260353Z 31012KT 10SM CLR 22/01 A2987 RMK AO2 SLP113 T02170011

Get Your Daily Forecast Email!

Thanks for signing up!

Be on the lookout for a verification email in your inbox.

You'll start receiving severe weather alerts in your inbox..

×

10-Day Weather Forecast

Almanac

Astronomy

Apr. 25, 2017 Rise Set
Actual Time
Civil Twilight
Nautical Twilight
Astronomical Twilight
Moon
Length of Visible Light
Length of Day
Tomorrow will be .
, % of the Moon is Illuminated

Today's Extremes

State Highs State Lows

Community

WunderPhotos

WunderBlog® & News

Nearby

Air Quality

  Air Quality AQ Index Pollutant
Not available.

Snow Depth

Station Depth Elevation

Earthquake Activity

City Distance Mag. Time & Date
Minimum magnitude displayed is 2.5.

Coastal Water Temperatures

Place Temperature

Stations

Nearby Weather Stations

Station Location Temp. Windchill Dew Point Humidity Wind Precip. Elev Updated Type
                   

Watches & Warnings

Beach Hazard Statement
Issued: 5:16 PM PDT Apr. 25, 2017 – National Weather Service

... Beach hazards statement in effect through Friday evening...

The National Weather Service in Los Angeles/Oxnard has issued a
beach hazards statement for elevated surf and strong rip currents,
which is in effect through Friday evening.

* Hazards... dangerous rip currents and breaking waves are expected
due to elevated surf of 3 to 6 feet. Local sets to 8 feet are
possible. Highest surf is expected each afternoon and evening on
west-facing beaches.

* Impacts... there is an increased risk of ocean drowning. Rip
currents can pull swimmers and surfers out to sea. Waves can
wash people off beaches and rocks... and capsize small boats
nearshore.

Precautionary/preparedness actions...

A beach hazards statement is issued when threats such as rip
currents... longshore currents... sneaker waves and other hazards
create life-threatening conditions in the surf zone. Swim near a
lifeguard. If caught in a rip current, relax and float. Don't
swim against the current. If able, swim in a direction following
the shoreline. If unable to escape, face the shore and call or
wave for help.



Sirard